Time;durP1;ratioP1;P1;durP2;ratioP2;P2;SDS_P1;SDS_P2;PMS_P1;PMS_P2;Temp;Humidity;BMP_temperature;BMP_pressure;BME280_temperature;BME280_humidity;BME280_pressure;Samples;Min_cycle;Max_cycle;Signal;HPM_P1;HPM_P2
2024/04/18 00:00:25;;;;;;;4.80;3.92;;;;;;;6.29;61.99;94420.75;5417060;26;20075;-51
2024/04/18 00:02:51;;;;;;;4.97;4.00;;;;;;;6.50;60.96;94422.72;5436571;26;19999;-50
2024/04/18 00:05:18;;;;;;;3.80;3.38;;;;;;;6.36;61.97;94415.69;5465141;26;20018;-50
2024/04/18 00:07:44;;;;;;;4.25;3.85;;;;;;;6.34;61.39;94417.66;5440700;26;20014;-53
2024/04/18 00:10:09;;;;;;;5.38;4.00;;;;;;;6.29;62.38;94422.53;5442798;26;20003;-50
2024/04/18 00:12:34;;;;;;;4.07;3.63;;;;;;;6.38;61.80;94416.34;5444028;26;20014;-52
2024/04/18 00:15:00;;;;;;;4.45;3.60;;;;;;;6.43;61.69;94416.63;5443433;26;20002;-51
2024/04/18 00:17:25;;;;;;;3.80;3.40;;;;;;;6.44;61.48;94410.50;5446866;26;19999;-52
2024/04/18 00:19:50;;;;;;;4.10;3.50;;;;;;;6.49;61.29;94410.78;5417312;26;20007;-47
2024/04/18 00:22:16;;;;;;;4.85;3.80;;;;;;;6.56;60.71;94409.13;5420275;26;20011;-48
2024/04/18 00:24:41;;;;;;;4.80;4.15;;;;;;;6.57;61.54;94409.94;5437831;26;19998;-51
2024/04/18 00:27:07;;;;;;;5.65;4.68;;;;;;;6.58;62.23;94414.91;5440866;26;20481;-50
2024/04/18 00:29:35;;;;;;;5.75;4.50;;;;;;;6.29;62.70;94407.84;5411076;26;20003;-45
2024/04/18 00:32:00;;;;;;;6.13;4.43;;;;;;;6.38;62.33;94408.63;5446326;26;20003;-49
2024/04/18 00:34:26;;;;;;;5.07;4.43;;;;;;;6.15;62.95;94406.81;5446300;26;20011;-47
2024/04/18 00:36:51;;;;;;;5.60;4.10;;;;;;;6.00;63.22;94408.50;5445001;26;20003;-48
2024/04/18 00:39:16;;;;;;;5.57;4.22;;;;;;;6.04;63.27;94402.03;5446517;26;19999;-50
2024/04/18 00:41:41;;;;;;;4.22;3.42;;;;;;;6.06;62.63;94402.66;5438189;26;20014;-50
2024/04/18 00:44:12;;;;;;;5.18;3.92;;;;;;;5.98;62.97;94388.00;5446291;26;20436;-48
2024/04/18 00:46:38;;;;;;;4.07;3.40;;;;;;;6.13;62.16;94395.84;5416902;26;20004;-48
2024/04/18 00:49:04;;;;;;;3.90;3.50;;;;;;;6.33;61.51;94400.56;5436009;26;19999;-49
2024/04/18 00:51:29;;;;;;;5.75;3.75;;;;;;;6.32;62.19;94398.94;5447781;26;20038;-45
2024/04/18 00:53:56;;;;;;;6.30;4.10;;;;;;;6.57;61.38;94400.41;5446142;26;20003;-47
2024/04/18 00:56:21;;;;;;;4.20;3.78;;;;;;;6.65;61.01;94397.75;5415048;26;20000;-44
2024/04/18 00:58:48;;;;;;;5.28;4.20;;;;;;;6.46;61.70;94393.06;5440891;26;20045;-45
2024/04/18 01:01:15;;;;;;;4.07;3.67;;;;;;;6.47;62.26;94399.81;5443356;26;20010;-44
2024/04/18 01:03:40;;;;;;;4.88;3.85;;;;;;;6.49;61.86;94392.69;5445515;26;20036;-47
2024/04/18 01:06:08;;;;;;;4.68;3.95;;;;;;;6.58;61.23;94391.66;5447888;26;20002;-49
2024/04/18 01:08:34;;;;;;;4.25;3.85;;;;;;;6.50;61.45;94388.34;5444937;26;19999;-46
2024/04/18 01:10:59;;;;;;;3.65;3.30;;;;;;;6.47;60.90;94381.72;5432326;26;20015;-51
2024/04/18 01:13:35;;;;;;;3.88;3.08;;;;;;;6.12;61.19;94381.31;5444077;26;20081;-49
2024/04/18 01:16:00;;;;;;;4.07;3.25;;;;;;;5.83;62.63;94384.50;5443592;26;20007;-51
2024/04/18 01:18:26;;;;;;;4.72;3.08;;;;;;;5.70;63.29;94379.09;5449608;26;20011;-50
2024/04/18 01:20:52;;;;;;;4.10;2.95;;;;;;;5.77;62.62;94380.84;5464392;26;20003;-51
2024/04/18 01:23:17;;;;;;;3.53;2.70;;;;;;;5.94;62.44;94378.16;5448608;26;20030;-50
2024/04/18 01:25:42;;;;;;;3.10;2.80;;;;;;;5.91;61.81;94383.66;5430316;26;20076;-50
2024/04/18 01:28:08;;;;;;;3.50;2.83;;;;;;;5.51;62.87;94372.56;5442533;26;20019;-51
2024/04/18 01:30:36;;;;;;;3.95;2.88;;;;;;;5.76;61.83;94381.00;5414310;26;20006;-49
2024/04/18 01:33:02;;;;;;;3.35;3.05;;;;;;;5.69;62.28;94373.09;5451241;26;19999;-51
2024/04/18 01:35:27;;;;;;;3.75;3.15;;;;;;;5.43;62.91;94381.94;5449246;26;20076;-47
2024/04/18 01:37:52;;;;;;;4.70;3.00;;;;;;;5.71;61.85;94375.53;5451325;26;20002;-50
2024/04/18 01:40:18;;;;;;;4.78;2.90;;;;;;;5.78;62.07;94374.69;5451442;26;19999;-50
2024/04/18 01:42:43;;;;;;;3.88;2.83;;;;;;;6.01;61.56;94385.06;5434143;26;20004;-50
2024/04/18 01:45:09;;;;;;;4.50;2.63;;;;;;;5.97;62.00;94383.03;5438946;26;20006;-49
2024/04/18 01:47:34;;;;;;;3.72;2.90;;;;;;;5.97;62.07;94376.06;5445182;26;20058;-48
2024/04/18 01:50:00;;;;;;;3.30;2.78;;;;;;;6.07;61.52;94375.84;5436625;26;20018;-45
2024/04/18 01:52:25;;;;;;;3.10;2.70;;;;;;;6.02;61.03;94370.41;5443429;26;19999;-46
2024/04/18 01:54:50;;;;;;;3.88;3.15;;;;;;;6.06;60.93;94372.47;5447079;26;20014;-48
2024/04/18 01:57:16;;;;;;;3.90;2.88;;;;;;;6.20;61.07;94383.84;5446088;26;20007;-49
2024/04/18 01:59:41;;;;;;;4.45;2.70;;;;;;;6.18;60.81;94367.72;5444178;26;20039;-44
2024/04/18 02:02:06;;;;;;;3.90;2.97;;;;;;;6.32;60.90;94371.34;5418262;26;20419;-50
2024/04/18 02:04:32;;;;;;;3.17;2.85;;;;;;;6.36;60.60;94371.78;5449243;26;20003;-44
2024/04/18 02:06:57;;;;;;;3.70;3.00;;;;;;;6.43;60.46;94367.56;5446276;26;20010;-45
2024/04/18 02:09:22;;;;;;;4.22;2.80;;;;;;;6.50;60.73;94372.84;5447554;26;20006;-47
2024/04/18 02:11:48;;;;;;;3.40;2.60;;;;;;;6.52;61.05;94371.69;5450928;26;19999;-49
2024/04/18 02:14:14;;;;;;;3.42;2.90;;;;;;;6.60;60.90;94370.81;5449242;26;20003;-48
2024/04/18 02:16:39;;;;;;;3.78;2.90;;;;;;;6.55;61.00;94365.34;5448850;26;20003;-53
2024/04/18 02:19:04;;;;;;;3.63;2.92;;;;;;;6.64;59.85;94370.31;5441869;26;19999;-50
2024/04/18 02:21:30;;;;;;;3.08;2.70;;;;;;;6.52;60.86;94374.28;5432390;26;20024;-46
2024/04/18 02:23:55;;;;;;;3.33;2.60;;;;;;;6.50;60.15;94372.84;5437434;26;20030;-49
2024/04/18 02:26:20;;;;;;;3.60;3.00;;;;;;;6.44;61.05;94374.34;5440001;26;20010;-49
2024/04/18 02:28:46;;;;;;;3.60;2.90;;;;;;;6.50;60.79;94372.84;5443423;26;20027;-46
2024/04/18 02:31:11;;;;;;;3.92;2.80;;;;;;;6.57;59.86;94377.16;5440191;26;20007;-50
2024/04/18 02:33:36;;;;;;;3.90;3.10;;;;;;;6.57;60.00;94368.59;5448527;26;19999;-46
2024/04/18 02:36:02;;;;;;;2.95;2.50;;;;;;;6.53;60.25;94372.47;5448457;26;20031;-48
2024/04/18 02:38:28;;;;;;;3.80;2.88;;;;;;;6.60;59.87;94373.41;5450515;26;20056;-49
2024/04/18 02:41:07;;;;;;;3.33;2.75;;;;;;;6.37;60.55;94363.09;5450223;26;20450;-49
2024/04/18 02:43:32;;;;;;;3.60;2.50;;;;;;;6.48;60.00;94354.94;5443492;26;19999;-46
2024/04/18 02:45:58;;;;;;;3.17;2.88;;;;;;;6.53;60.50;94362.97;5445982;26;20390;-50
2024/04/18 02:48:23;;;;;;;3.55;2.80;;;;;;;6.64;60.44;94370.31;5446444;26;20002;-49
2024/04/18 02:50:49;;;;;;;2.83;2.50;;;;;;;6.72;60.57;94361.69;5450330;26;20006;-48
2024/04/18 02:53:14;;;;;;;3.03;2.72;;;;;;;6.85;59.40;94361.06;5418776;26;20013;-47
2024/04/18 02:55:40;;;;;;;3.15;2.83;;;;;;;6.90;59.78;94361.34;5450161;26;20010;-50
2024/04/18 02:58:05;;;;;;;4.68;3.20;;;;;;;6.85;60.34;94355.91;5448181;26;20003;-47
2024/04/18 03:00:31;;;;;;;4.68;2.83;;;;;;;6.73;60.00;94347.78;5445737;26;20003;-49
2024/04/18 03:02:56;;;;;;;3.28;2.38;;;;;;;6.52;60.09;94366.53;5450024;26;19999;-48
2024/04/18 03:05:21;;;;;;;4.88;2.80;;;;;;;6.42;60.55;94359.00;5448141;26;20010;-50
2024/04/18 03:07:47;;;;;;;3.72;2.70;;;;;;;6.46;60.69;94360.25;5447393;26;20023;-48
2024/04/18 03:10:12;;;;;;;3.22;2.88;;;;;;;6.02;61.38;94360.09;5448229;26;20016;-47
2024/04/18 03:12:38;;;;;;;3.00;2.65;;;;;;;6.12;61.50;94360.66;5428430;26;20021;-46
2024/04/18 03:15:03;;;;;;;3.40;2.63;;;;;;;6.25;61.18;94360.91;5414991;26;20011;-45
2024/04/18 03:17:29;;;;;;;4.13;2.97;;;;;;;6.34;60.99;94364.25;5411932;26;20075;-46
2024/04/18 03:19:54;;;;;;;4.53;3.20;;;;;;;6.28;60.65;94358.94;5416243;26;20333;-48
2024/04/18 03:22:19;;;;;;;4.43;3.00;;;;;;;6.28;60.97;94358.94;5443960;26;20022;-51
2024/04/18 03:24:45;;;;;;;3.38;2.70;;;;;;;6.29;60.84;94363.16;5446030;26;20002;-50
2024/04/18 03:27:10;;;;;;;4.25;3.00;;;;;;;6.38;60.30;94360.34;5439797;26;19999;-48
2024/04/18 03:29:35;;;;;;;5.20;3.30;;;;;;;6.46;61.11;94359.47;5449709;26;20048;-48
2024/04/18 03:32:03;;;;;;;4.53;2.97;;;;;;;6.35;61.10;94360.66;5441729;26;20003;-48
2024/04/18 03:34:28;;;;;;;3.72;3.28;;;;;;;6.57;60.74;94364.22;5435788;26;20000;-49
2024/04/18 03:36:54;;;;;;;5.15;3.65;;;;;;;6.45;61.30;94358.69;5415331;26;20076;-49
2024/04/18 03:39:20;;;;;;;4.93;4.00;;;;;;;6.67;60.78;94363.19;5449320;26;20000;-47
2024/04/18 03:41:49;;;;;;;5.35;3.95;;;;;;;6.58;60.60;94371.00;5448972;26;20010;-50
2024/04/18 03:44:14;;;;;;;4.93;3.65;;;;;;;6.49;60.76;94371.22;5437551;26;20537;-46
2024/04/18 03:46:40;;;;;;;4.03;3.35;;;;;;;6.36;60.94;94372.63;5439417;26;20000;-50
2024/04/18 03:49:07;;;;;;;4.53;3.70;;;;;;;6.45;60.79;94378.50;5438539;26;20054;-49
2024/04/18 03:51:35;;;;;;;4.68;3.50;;;;;;;6.22;61.42;94378.50;5413808;26;19996;-47
2024/04/18 03:54:01;;;;;;;4.30;3.58;;;;;;;6.15;61.39;94375.81;5447454;26;20334;-47
2024/04/18 03:56:26;;;;;;;6.55;3.72;;;;;;;5.96;61.64;94377.06;5417914;26;20000;-45
2024/04/18 03:58:54;;;;;;;6.30;3.60;;;;;;;5.96;61.30;94381.41;5447148;26;19999;-47
2024/04/18 04:01:20;;;;;;;3.72;3.30;;;;;;;5.90;61.40;94389.78;5437767;26;20003;-48
2024/04/18 04:03:45;;;;;;;4.40;3.05;;;;;;;5.81;61.64;94389.03;5442235;26;20153;-48
2024/04/18 04:06:10;;;;;;;4.47;3.58;;;;;;;5.87;61.84;94396.09;5445094;26;19995;-51
2024/04/18 04:08:36;;;;;;;4.60;3.58;;;;;;;5.85;61.40;94398.84;5448995;26;19999;-47
2024/04/18 04:11:01;;;;;;;3.85;3.25;;;;;;;5.92;61.56;94406.75;5449119;26;20071;-45
2024/04/18 04:13:26;;;;;;;4.80;3.42;;;;;;;5.79;61.89;94402.09;5443020;26;20024;-50
2024/04/18 04:15:52;;;;;;;4.85;2.90;;;;;;;5.77;61.13;94406.63;5446794;26;20005;-48
2024/04/18 04:18:17;;;;;;;4.28;3.05;;;;;;;5.57;61.91;94408.00;5444058;26;20002;-49
2024/04/18 04:20:43;;;;;;;4.28;3.17;;;;;;;5.52;61.83;94418.81;5411507;26;20028;-50
2024/04/18 04:23:08;;;;;;;4.18;2.88;;;;;;;5.29;62.34;94419.53;5474497;26;19999;-52
2024/04/18 04:25:34;;;;;;;4.22;3.03;;;;;;;5.44;61.34;94413.66;5448856;26;19999;-48
2024/04/18 04:27:59;;;;;;;3.30;2.63;;;;;;;5.04;62.21;94411.00;5435035;26;20018;-48
2024/04/18 04:30:25;;;;;;;4.85;2.85;;;;;;;5.14;61.75;94415.19;5447223;26;20006;-48
2024/04/18 04:32:50;;;;;;;3.92;3.15;;;;;;;4.73;62.98;94412.66;5445389;26;20013;-48
2024/04/18 04:35:15;;;;;;;4.25;3.03;;;;;;;4.81;63.08;94417.78;5436373;26;20078;-48
2024/04/18 04:37:41;;;;;;;4.20;2.97;;;;;;;4.80;62.73;94423.94;5398050;26;20015;-46
2024/04/18 04:40:06;;;;;;;5.15;3.10;;;;;;;4.94;62.90;94431.00;5445183;26;20007;-44
2024/04/18 04:42:33;;;;;;;3.95;2.85;;;;;;;5.17;61.79;94420.03;5447835;26;20018;-45
2024/04/18 04:44:58;;;;;;;4.40;3.55;;;;;;;4.92;62.52;94427.78;5444511;26;20062;-45
2024/04/18 04:47:23;;;;;;;5.28;3.85;;;;;;;4.72;63.27;94431.63;5448786;26;19999;-44
2024/04/18 04:49:49;;;;;;;4.07;3.28;;;;;;;4.77;63.18;94437.13;5442851;26;20003;-44
2024/04/18 04:52:14;;;;;;;3.90;2.75;;;;;;;4.46;64.52;94446.28;5446631;26;20003;-44
2024/04/18 04:54:43;;;;;;;4.10;2.55;;;;;;;4.42;64.51;94441.59;5441465;26;20038;-44
2024/04/18 04:57:10;;;;;;;4.75;2.63;;;;;;;4.51;64.29;94432.91;5446644;26;19998;-49
2024/04/18 04:59:36;;;;;;;3.05;2.15;;;;;;;4.59;64.33;94437.25;5440708;26;20042;-49
2024/04/18 05:02:01;;;;;;;3.00;1.85;;;;;;;4.24;64.87;94437.38;5439893;26;20010;-47
2024/04/18 05:04:26;;;;;;;2.30;2.00;;;;;;;3.80;66.94;94447.06;5437224;26;20002;-46
2024/04/18 05:06:52;;;;;;;2.30;1.40;;;;;;;4.21;65.76;94449.78;5447593;26;19999;-50
2024/04/18 05:09:20;;;;;;;2.40;1.55;;;;;;;4.61;64.62;94446.44;5445474;26;20432;-46
2024/04/18 05:11:46;;;;;;;1.52;1.25;;;;;;;4.83;63.78;94451.94;5446782;26;20003;-49
2024/04/18 05:14:12;;;;;;;1.50;1.40;;;;;;;4.97;63.12;94447.91;5419982;26;20018;-47
2024/04/18 05:16:37;;;;;;;2.17;1.70;;;;;;;4.60;64.47;94454.34;5437507;26;19999;-48
2024/04/18 05:19:02;;;;;;;2.95;1.90;;;;;;;4.66;64.17;94451.94;5444849;26;20015;-45
2024/04/18 05:21:28;;;;;;;2.28;1.67;;;;;;;4.99;62.99;94464.81;5443442;26;19999;-45
2024/04/18 05:23:53;;;;;;;2.28;1.40;;;;;;;4.95;63.28;94460.97;5447869;26;20011;-45
2024/04/18 05:26:18;;;;;;;2.45;2.05;;;;;;;4.89;63.07;94470.16;5443463;26;20006;-46
2024/04/18 05:31:28;;;;;;;3.38;2.22;;;;;;;5.19;62.45;94467.84;5433946;26;20018;-45
2024/04/18 05:33:54;;;;;;;4.22;3.30;;;;;;;4.92;63.10;94463.84;5435613;26;20000;-46
2024/04/18 05:36:19;;;;;;;4.60;3.08;;;;;;;4.99;62.52;94474.31;5442386;26;20448;-44
2024/04/18 05:38:45;;;;;;;9.57;4.15;;;;;;;4.86;62.81;94472.22;5444666;26;20044;-45
2024/04/18 05:41:10;;;;;;;5.07;3.58;;;;;;;4.61;64.14;94474.78;5425236;26;20006;-44
2024/04/18 05:43:35;;;;;;;4.80;3.67;;;;;;;4.76;63.54;94469.00;5438260;26;20006;-44
2024/04/18 05:46:01;;;;;;;8.02;5.95;;;;;;;4.82;63.50;94476.09;5443049;26;20162;-44
2024/04/18 05:48:26;;;;;;;7.60;5.28;;;;;;;4.78;63.72;94482.50;5442665;26;20007;-44
2024/04/18 05:50:51;;;;;;;8.30;4.20;;;;;;;4.60;64.39;94491.19;5441792;26;19999;-47
2024/04/18 05:53:17;;;;;;;12.85;3.75;;;;;;;4.66;64.28;94488.00;5444083;26;20483;-44
2024/04/18 05:55:43;;;;;;;4.20;3.03;;;;;;;4.78;63.90;94492.81;5447481;26;20082;-48
2024/04/18 05:58:08;;;;;;;3.42;2.80;;;;;;;4.76;63.72;94492.16;5446885;26;20085;-48
2024/04/18 06:00:34;;;;;;;3.50;2.63;;;;;;;4.82;63.81;94494.13;5448099;26;20007;-48
2024/04/18 06:02:59;;;;;;;3.67;3.28;;;;;;;4.83;63.84;94493.16;5438257;26;20344;-52
2024/04/18 06:05:25;;;;;;;3.20;2.63;;;;;;;4.97;63.48;94497.69;5435091;26;20022;-52
2024/04/18 06:07:52;;;;;;;4.10;3.05;;;;;;;5.08;62.55;94497.38;5429093;26;20071;-47
2024/04/18 06:10:17;;;;;;;2.80;2.40;;;;;;;4.97;62.99;94497.69;5429734;26;20013;-49
2024/04/18 06:12:42;;;;;;;3.33;2.47;;;;;;;4.98;62.69;94498.47;5426026;26;19995;-52
2024/04/18 06:15:08;;;;;;;3.65;3.00;;;;;;;4.94;63.53;94510.88;5436056;26;19999;-47
2024/04/18 06:17:33;;;;;;;3.40;2.80;;;;;;;5.09;62.50;94506.69;5441473;26;20006;-45
2024/04/18 06:19:59;;;;;;;4.90;3.90;;;;;;;5.01;63.26;94504.13;5438555;26;20003;-50
2024/04/18 06:22:24;;;;;;;5.80;3.88;;;;;;;4.95;63.99;94512.50;5442616;26;20043;-47
2024/04/18 06:24:50;;;;;;;3.72;3.10;;;;;;;5.13;63.18;94509.75;5446545;26;20454;-48
2024/04/18 06:27:15;;;;;;;3.58;2.47;;;;;;;5.31;62.72;94525.03;5447566;26;20011;-48
2024/04/18 06:29:41;;;;;;;2.30;2.10;;;;;;;5.14;63.38;94521.69;5445493;26;19999;-49
2024/04/18 06:32:06;;;;;;;2.33;1.88;;;;;;;5.21;62.95;94514.09;5442273;26;19996;-47
2024/04/18 06:34:31;;;;;;;1.88;1.67;;;;;;;5.31;62.16;94524.25;5434347;26;19999;-48
2024/04/18 06:36:57;;;;;;;2.45;1.88;;;;;;;5.50;61.56;94523.91;5441222;26;20421;-50
2024/04/18 06:39:23;;;;;;;2.38;1.77;;;;;;;5.39;62.18;94521.69;5446026;26;20014;-49
2024/04/18 06:41:48;;;;;;;2.72;2.15;;;;;;;5.42;61.84;94523.91;5448687;26;20014;-49
2024/04/18 06:44:13;;;;;;;2.25;1.90;;;;;;;5.38;62.61;94528.59;5449884;26;20009;-52
2024/04/18 06:46:39;;;;;;;2.13;1.92;;;;;;;5.18;63.68;94533.28;5415588;26;20477;-46
2024/04/18 06:49:05;;;;;;;2.70;1.92;;;;;;;5.32;63.14;94534.41;5447680;26;20071;-49
2024/04/18 06:51:31;;;;;;;2.30;2.10;;;;;;;5.75;61.48;94540.19;5450093;26;20023;-48
2024/04/18 06:53:56;;;;;;;3.13;2.33;;;;;;;5.87;60.49;94530.31;5432469;26;20018;-45
2024/04/18 06:56:21;;;;;;;2.55;2.35;;;;;;;5.86;60.82;94533.84;5439408;26;20105;-49
2024/04/18 06:58:47;;;;;;;2.63;2.40;;;;;;;5.86;60.76;94534.66;5413374;26;20089;-48
2024/04/18 07:01:12;;;;;;;2.50;1.83;;;;;;;6.01;60.17;94552.88;5443790;26;19994;-46
2024/04/18 07:03:38;;;;;;;2.22;2.03;;;;;;;5.85;60.35;94543.38;5439794;26;19999;-44
2024/04/18 07:06:03;;;;;;;2.22;1.73;;;;;;;5.39;62.72;94561.16;5438307;26;19999;-44
2024/04/18 07:08:28;;;;;;;2.30;2.10;;;;;;;5.57;61.73;94558.41;5408276;26;20079;-45
2024/04/18 07:10:54;;;;;;;2.45;2.10;;;;;;;5.66;61.70;94554.84;5443628;26;20002;-47
2024/04/18 07:13:20;;;;;;;2.35;1.90;;;;;;;6.07;60.05;94544.47;5447332;26;19995;-47
2024/04/18 07:15:45;;;;;;;2.28;2.08;;;;;;;5.93;60.36;94547.72;5441067;26;20010;-46
2024/04/18 07:18:11;;;;;;;2.92;1.92;;;;;;;5.74;61.24;94561.78;5433760;26;20011;-46
2024/04/18 07:20:36;;;;;;;2.20;1.90;;;;;;;5.83;61.02;94550.47;5414806;26;20377;-46
2024/04/18 07:23:02;;;;;;;2.45;1.98;;;;;;;5.92;60.28;94565.94;5412063;26;20006;-46
2024/04/18 07:25:27;;;;;;;3.00;2.08;;;;;;;5.95;60.31;94563.84;5436849;26;19999;-48
2024/04/18 07:27:52;;;;;;;2.80;1.98;;;;;;;6.16;59.70;94570.28;5442367;26;20006;-47
2024/04/18 07:30:19;;;;;;;2.28;2.00;;;;;;;5.79;61.06;94572.41;5442524;26;19995;-46
2024/04/18 07:32:44;;;;;;;2.10;1.90;;;;;;;6.16;59.91;94567.69;5445558;26;20005;-46
2024/04/18 07:35:10;;;;;;;2.10;1.95;;;;;;;5.98;60.86;94568.69;5446244;26;20024;-45
2024/04/18 07:37:35;;;;;;;18.17;13.20;;;;;;;6.00;60.73;94578.88;5445236;26;19998;-45
2024/04/18 07:40:08;;;;;;;30.60;19.00;;;;;;;6.25;59.84;94582.19;5415748;26;19998;-45
2024/04/18 07:42:33;;;;;;;30.73;19.48;;;;;;;6.15;60.00;94576.38;5414157;26;20079;-48
2024/04/18 07:44:58;;;;;;;38.33;24.48;;;;;;;6.34;59.99;94583.78;5470204;26;20015;-46
2024/04/18 07:47:24;;;;;;;46.13;32.42;;;;;;;6.43;59.64;94587.13;5448386;26;20478;-45
2024/04/18 07:49:49;;;;;;;23.50;17.83;;;;;;;6.53;58.97;94586.91;5441051;26;20007;-47
2024/04/18 07:52:15;;;;;;;21.17;17.00;;;;;;;6.11;61.38;94591.44;5417150;26;20011;-46
2024/04/18 07:54:40;;;;;;;4.05;3.58;;;;;;;6.22;61.10;94591.06;5448640;26;20010;-48
2024/04/18 07:57:05;;;;;;;3.38;2.78;;;;;;;6.45;60.90;94598.09;5434891;26;20415;-47
2024/04/18 07:59:31;;;;;;;3.25;2.92;;;;;;;6.93;58.84;94601.44;5445270;26;20016;-48
2024/04/18 08:01:56;;;;;;;2.40;2.10;;;;;;;6.64;60.04;94597.72;5439538;26;20016;-44
2024/04/18 08:04:21;;;;;;;2.33;1.77;;;;;;;6.73;59.89;94605.41;5447659;26;20035;-47
2024/04/18 08:06:47;;;;;;;2.83;1.55;;;;;;;6.83;59.62;94596.50;5444932;26;20014;-50
2024/04/18 08:09:12;;;;;;;1.83;1.67;;;;;;;6.91;60.24;94605.16;5437760;26;20003;-45
2024/04/18 08:11:38;;;;;;;2.00;1.80;;;;;;;7.17;59.47;94615.19;5434697;26;20003;-50
2024/04/18 08:14:03;;;;;;;1.77;1.67;;;;;;;7.35;58.78;94615.72;5439065;26;19999;-46
2024/04/18 08:16:29;;;;;;;1.70;1.50;;;;;;;7.50;57.89;94614.97;5440276;26;20003;-48
2024/04/18 08:18:54;;;;;;;1.77;1.67;;;;;;;7.63;58.33;94622.94;5409668;26;20397;-47
2024/04/18 08:21:19;;;;;;;1.88;1.67;;;;;;;7.83;57.31;94625.88;5439312;26;20006;-45
2024/04/18 08:23:52;;;;;;;1.58;1.42;;;;;;;8.19;56.18;94623.44;5448018;26;20002;-44
2024/04/18 08:26:17;;;;;;;1.08;0.90;;;;;;;8.16;55.98;94625.56;5442105;26;20440;-44
2024/04/18 08:28:42;;;;;;;1.20;1.10;;;;;;;8.60;55.12;94636.00;5446800;26;19999;-44
2024/04/18 08:31:08;;;;;;;1.10;1.00;;;;;;;8.73;54.17;94639.75;5433596;26;20429;-46
2024/04/18 08:33:33;;;;;;;1.10;0.82;;;;;;;8.53;55.39;94647.25;5444838;26;20007;-44
2024/04/18 08:35:58;;;;;;;0.88;0.88;;;;;;;8.81;55.01;94647.41;5436002;26;20006;-45
2024/04/18 08:38:24;;;;;;;1.20;1.08;;;;;;;8.77;54.19;94643.56;5446729;26;20075;-46
2024/04/18 08:40:51;;;;;;;1.15;1.08;;;;;;;8.77;54.49;94646.16;5446467;26;20015;-44
2024/04/18 08:43:16;;;;;;;1.25;1.15;;;;;;;8.53;55.12;94655.00;5432621;26;20620;-44
2024/04/18 08:45:43;;;;;;;1.42;1.30;;;;;;;8.72;54.68;94649.31;5445566;26;20002;-44
2024/04/18 08:48:12;;;;;;;1.50;1.40;;;;;;;8.65;55.45;94663.19;5448499;26;19999;-46
2024/04/18 08:50:40;;;;;;;1.50;1.40;;;;;;;8.76;55.08;94657.53;5427569;26;20008;-43
2024/04/18 08:53:06;;;;;;;1.38;1.27;;;;;;;8.70;55.71;94655.66;5448646;26;20014;-44
2024/04/18 08:55:34;;;;;;;1.40;1.30;;;;;;;9.31;53.62;94663.97;5442990;26;19999;-44
2024/04/18 08:58:10;;;;;;;1.98;1.40;;;;;;;8.72;55.26;94667.47;5440035;26;20449;-44
2024/04/18 09:00:40;;;;;;;1.30;1.20;;;;;;;8.91;54.95;94667.88;5464819;26;20094;-44
2024/04/18 09:03:05;;;;;;;1.38;1.27;;;;;;;8.90;55.54;94672.28;5441160;26;20000;-46
2024/04/18 09:05:31;;;;;;;1.20;1.10;;;;;;;8.95;55.43;94680.31;5403512;26;20081;-44
2024/04/18 09:07:56;;;;;;;1.20;1.10;;;;;;;9.12;53.88;94674.91;5437303;26;20003;-44
2024/04/18 09:10:23;;;;;;;1.17;1.08;;;;;;;9.11;53.86;94684.50;5407176;26;20326;-45
2024/04/18 09:12:52;;;;;;;1.80;1.33;;;;;;;8.98;54.21;94689.53;5442829;26;20016;-44
2024/04/18 09:15:18;;;;;;;1.40;1.30;;;;;;;9.36;52.99;94682.38;5442618;26;20351;-44
2024/04/18 09:17:43;;;;;;;1.90;1.70;;;;;;;8.86;54.06;94694.38;5446460;26;20000;-45
2024/04/18 09:20:09;;;;;;;1.60;1.50;;;;;;;8.94;53.63;94694.25;5415938;26;20010;-43
2024/04/18 09:22:34;;;;;;;1.60;1.50;;;;;;;9.02;54.28;94698.56;5432532;26;20010;-47
2024/04/18 09:25:00;;;;;;;1.65;1.55;;;;;;;8.72;54.46;94706.34;5457854;26;20002;-45
2024/04/18 09:27:25;;;;;;;1.70;1.55;;;;;;;8.65;55.48;94709.84;5453034;26;20018;-45
2024/04/18 09:29:51;;;;;;;2.40;2.20;;;;;;;8.75;55.62;94715.56;5449088;26;20455;-43
2024/04/18 09:32:16;;;;;;;2.15;1.95;;;;;;;8.44;56.01;94713.91;5448378;26;20071;-46
2024/04/18 09:34:43;;;;;;;2.30;2.10;;;;;;;8.15;56.97;94718.03;5428665;26;20014;-45
2024/04/18 09:37:14;;;;;;;2.20;2.10;;;;;;;8.14;56.43;94719.00;5446774;26;19998;-45
2024/04/18 09:39:42;;;;;;;2.17;1.98;;;;;;;8.07;56.50;94725.06;5450073;26;20003;-46
2024/04/18 09:42:16;;;;;;;2.20;2.00;;;;;;;7.78;57.25;94729.13;5447198;26;20022;-43
2024/04/18 09:44:52;;;;;;;1.70;1.60;;;;;;;7.49;56.88;94729.81;5438412;26;20015;-45
2024/04/18 09:47:18;;;;;;;1.85;1.50;;;;;;;7.40;57.87;94737.59;5448523;26;20017;-44
2024/04/18 09:49:44;;;;;;;1.50;1.40;;;;;;;7.23;58.23;94738.66;5438311;26;20398;-49
2024/04/18 09:52:12;;;;;;;1.45;1.35;;;;;;;7.02;58.51;94737.44;5439348;26;20324;-44
2024/04/18 09:54:40;;;;;;;2.42;1.60;;;;;;;6.72;58.98;94744.19;5450939;26;20003;-44
2024/04/18 09:57:06;;;;;;;1.38;1.27;;;;;;;6.46;60.00;94757.28;5450210;26;20005;-44
2024/04/18 09:59:32;;;;;;;1.30;1.20;;;;;;;6.48;59.15;94757.94;5441563;26;20007;-44
2024/04/18 10:02:00;;;;;;;1.10;1.02;;;;;;;6.03;60.25;94754.88;5435275;26;20439;-48
2024/04/18 10:04:26;;;;;;;1.23;1.13;;;;;;;6.03;60.08;94757.44;5450814;26;20005;-48
2024/04/18 10:06:53;;;;;;;1.70;1.30;;;;;;;5.97;60.23;94759.88;5448107;26;20002;-46
2024/04/18 10:09:22;;;;;;;1.50;1.10;;;;;;;5.89;60.24;94763.22;5447511;26;20005;-45
2024/04/18 10:11:49;;;;;;;1.08;1.05;;;;;;;6.02;60.18;94761.00;5444215;26;20011;-48
2024/04/18 10:14:14;;;;;;;1.30;1.20;;;;;;;5.98;60.02;94761.50;5448845;26;19991;-48
2024/04/18 10:16:50;;;;;;;1.20;1.10;;;;;;;5.73;60.75;94769.19;5448663;26;20005;-46
2024/04/18 10:19:22;;;;;;;1.90;1.70;;;;;;;5.75;61.17;94772.41;5446809;26;20014;-46
2024/04/18 10:21:58;;;;;;;1.55;1.45;;;;;;;5.82;60.67;94773.38;5417478;26;20011;-45
2024/04/18 10:24:34;;;;;;;1.40;1.30;;;;;;;6.05;59.92;94775.38;5429038;26;20007;-46
2024/04/18 10:27:11;;;;;;;1.60;1.50;;;;;;;5.98;60.49;94788.13;5444387;26;20003;-48
2024/04/18 10:29:37;;;;;;;1.60;1.50;;;;;;;6.02;60.40;94789.41;5440919;26;20072;-48
2024/04/18 10:32:03;;;;;;;1.63;1.52;;;;;;;5.95;60.95;94788.44;5448247;26;20018;-45
2024/04/18 10:34:30;;;;;;;1.50;1.40;;;;;;;6.06;60.47;94793.28;5440013;26;20014;-50
2024/04/18 10:37:07;;;;;;;3.80;3.50;;;;;;;5.95;61.00;94795.34;5449425;26;20006;-47
2024/04/18 10:39:37;;;;;;;3.65;3.35;;;;;;;6.43;59.33;94793.78;5432672;26;19999;-49
2024/04/18 10:42:10;;;;;;;4.63;3.53;;;;;;;6.53;58.96;94801.34;5445815;26;20011;-47
2024/04/18 10:44:38;;;;;;;10.90;7.18;;;;;;;6.58;59.75;94804.28;5442301;26;20003;-49
2024/04/18 10:47:04;;;;;;;7.13;4.85;;;;;;;6.95;58.69;94808.06;5435228;26;20007;-47
2024/04/18 10:49:30;;;;;;;5.40;4.15;;;;;;;7.04;58.88;94804.50;5449610;26;20003;-46
2024/04/18 10:51:59;;;;;;;6.07;4.43;;;;;;;6.85;59.62;94806.50;5450277;26;20003;-48
2024/04/18 10:54:25;;;;;;;5.40;4.47;;;;;;;7.36;59.49;94811.34;5443921;26;20038;-49
2024/04/18 10:56:50;;;;;;;3.33;2.88;;;;;;;7.83;57.82;94804.53;5445470;26;19998;-44
2024/04/18 10:59:16;;;;;;;2.58;2.35;;;;;;;8.03;57.20;94810.06;5442115;26;20022;-43
2024/04/18 11:01:42;;;;;;;1.30;1.20;;;;;;;8.13;56.95;94805.47;5448242;26;20002;-45
2024/04/18 11:04:09;;;;;;;1.65;1.40;;;;;;;8.25;57.35;94808.47;5440169;26;20003;-44
2024/04/18 11:06:41;;;;;;;1.20;1.10;;;;;;;8.59;54.85;94810.66;5447403;26;20006;-47
2024/04/18 11:09:07;;;;;;;1.30;1.20;;;;;;;8.66;54.74;94815.13;5443773;26;20040;-46
2024/04/18 11:11:38;;;;;;;2.03;1.10;;;;;;;8.44;55.88;94811.59;5450247;26;20023;-44
2024/04/18 11:14:03;;;;;;;1.00;1.00;;;;;;;8.41;55.62;94815.31;5449978;26;19995;-44
2024/04/18 11:16:29;;;;;;;1.40;1.30;;;;;;;8.58;55.82;94819.41;5439899;26;19999;-45
2024/04/18 11:18:55;;;;;;;1.65;1.27;;;;;;;8.46;56.36;94817.41;5436728;26;20002;-44
2024/04/18 11:21:21;;;;;;;1.30;1.20;;;;;;;8.43;56.15;94822.94;5448692;26;19995;-56
2024/04/18 11:23:51;;;;;;;1.17;1.10;;;;;;;8.46;55.52;94822.59;5439630;26;19999;-44
2024/04/18 11:26:20;;;;;;;1.85;1.17;;;;;;;8.99;55.42;94820.84;5444419;26;20015;-44
2024/04/18 11:28:48;;;;;;;1.10;1.00;;;;;;;8.64;55.90;94822.28;5445242;26;20038;-46
2024/04/18 11:31:14;;;;;;;1.38;1.27;;;;;;;8.83;55.83;94821.78;5447994;26;20341;-45
2024/04/18 11:33:40;;;;;;;1.80;1.70;;;;;;;8.82;55.30;94817.59;5443160;26;20003;-44
2024/04/18 11:36:07;;;;;;;1.40;1.30;;;;;;;8.73;56.37;94824.63;5416463;26;20068;-44
2024/04/18 11:38:33;;;;;;;1.55;1.45;;;;;;;9.00;55.21;94828.44;5507440;25;20010;-45